sensor_id;sensor_type;location;lat;lon;timestamp;temperature;humidity
21312;DHT22;18076;52.154;10.570;2023-04-25T00:00:32;8.00;99.90
21312;DHT22;18076;52.154;10.570;2023-04-25T00:02:59;8.00;99.90
21312;DHT22;18076;52.154;10.570;2023-04-25T00:05:25;8.00;99.90
21312;DHT22;18076;52.154;10.570;2023-04-25T00:07:52;8.00;99.90
21312;DHT22;18076;52.154;10.570;2023-04-25T00:10:21;8.00;99.90
21312;DHT22;18076;52.154;10.570;2023-04-25T00:12:51;7.90;99.90
21312;DHT22;18076;52.154;10.570;2023-04-25T00:15:16;7.90;99.90
21312;DHT22;18076;52.154;10.570;2023-04-25T00:17:42;7.80;99.90
21312;DHT22;18076;52.154;10.570;2023-04-25T00:20:08;7.70;99.90
21312;DHT22;18076;52.154;10.570;2023-04-25T00:22:34;7.70;99.90
21312;DHT22;18076;52.154;10.570;2023-04-25T00:25:03;7.60;99.90
21312;DHT22;18076;52.154;10.570;2023-04-25T00:27:28;7.60;99.90
21312;DHT22;18076;52.154;10.570;2023-04-25T00:29:54;7.60;99.90
21312;DHT22;18076;52.154;10.570;2023-04-25T00:32:20;7.60;99.90
21312;DHT22;18076;52.154;10.570;2023-04-25T00:34:45;7.60;99.90
21312;DHT22;18076;52.154;10.570;2023-04-25T00:37:11;7.60;99.90
21312;DHT22;18076;52.154;10.570;2023-04-25T00:39:37;7.60;99.90
21312;DHT22;18076;52.154;10.570;2023-04-25T00:42:02;7.60;99.90
21312;DHT22;18076;52.154;10.570;2023-04-25T00:44:29;7.60;99.90
21312;DHT22;18076;52.154;10.570;2023-04-25T00:46:54;7.60;99.90
21312;DHT22;18076;52.154;10.570;2023-04-25T00:49:20;7.60;99.90
21312;DHT22;18076;52.154;10.570;2023-04-25T00:51:45;7.60;99.90
21312;DHT22;18076;52.154;10.570;2023-04-25T00:54:11;7.70;99.90
21312;DHT22;18076;52.154;10.570;2023-04-25T00:56:37;7.60;99.90
21312;DHT22;18076;52.154;10.570;2023-04-25T00:59:03;7.70;99.90
21312;DHT22;18076;52.154;10.570;2023-04-25T01:01:29;7.60;99.90
21312;DHT22;18076;52.154;10.570;2023-04-25T01:03:55;7.60;99.90
21312;DHT22;18076;52.154;10.570;2023-04-25T01:06:21;7.60;99.90
21312;DHT22;18076;52.154;10.570;2023-04-25T01:08:47;7.60;99.90
21312;DHT22;18076;52.154;10.570;2023-04-25T01:11:13;7.60;99.90
21312;DHT22;18076;52.154;10.570;2023-04-25T01:13:39;7.60;99.90
21312;DHT22;18076;52.154;10.570;2023-04-25T01:16:04;7.60;99.90
21312;DHT22;18076;52.154;10.570;2023-04-25T01:18:30;7.70;99.90
21312;DHT22;18076;52.154;10.570;2023-04-25T01:20:56;7.70;99.90
21312;DHT22;18076;52.154;10.570;2023-04-25T01:23:23;7.70;99.90
21312;DHT22;18076;52.154;10.570;2023-04-25T01:25:49;7.70;99.90
21312;DHT22;18076;52.154;10.570;2023-04-25T01:28:15;7.70;99.90
21312;DHT22;18076;52.154;10.570;2023-04-25T01:30:41;7.60;99.90
21312;DHT22;18076;52.154;10.570;2023-04-25T01:33:07;7.60;99.90
21312;DHT22;18076;52.154;10.570;2023-04-25T01:35:33;7.60;99.90
21312;DHT22;18076;52.154;10.570;2023-04-25T01:37:58;7.60;99.90
21312;DHT22;18076;52.154;10.570;2023-04-25T01:40:24;7.60;99.90
21312;DHT22;18076;52.154;10.570;2023-04-25T01:42:50;7.60;99.90
21312;DHT22;18076;52.154;10.570;2023-04-25T01:45:16;7.60;99.90
21312;DHT22;18076;52.154;10.570;2023-04-25T01:47:42;7.60;99.90
21312;DHT22;18076;52.154;10.570;2023-04-25T01:50:09;7.60;99.90
21312;DHT22;18076;52.154;10.570;2023-04-25T01:52:34;7.60;99.90
21312;DHT22;18076;52.154;10.570;2023-04-25T01:55:03;7.60;99.90
21312;DHT22;18076;52.154;10.570;2023-04-25T01:57:29;7.60;99.90
21312;DHT22;18076;52.154;10.570;2023-04-25T01:59:58;7.60;99.90
21312;DHT22;18076;52.154;10.570;2023-04-25T02:02:24;7.60;99.90
21312;DHT22;18076;52.154;10.570;2023-04-25T02:04:50;7.60;99.90
21312;DHT22;18076;52.154;10.570;2023-04-25T02:07:15;7.60;99.90
21312;DHT22;18076;52.154;10.570;2023-04-25T02:09:41;7.60;99.90
21312;DHT22;18076;52.154;10.570;2023-04-25T02:12:07;7.60;99.90
21312;DHT22;18076;52.154;10.570;2023-04-25T02:14:33;7.60;99.90
21312;DHT22;18076;52.154;10.570;2023-04-25T02:16:58;7.60;99.90
21312;DHT22;18076;52.154;10.570;2023-04-25T02:19:24;7.50;99.90
21312;DHT22;18076;52.154;10.570;2023-04-25T02:21:49;7.50;99.90
21312;DHT22;18076;52.154;10.570;2023-04-25T02:24:15;7.50;99.90
21312;DHT22;18076;52.154;10.570;2023-04-25T02:26:41;7.50;99.90
21312;DHT22;18076;52.154;10.570;2023-04-25T02:29:06;7.50;99.90
21312;DHT22;18076;52.154;10.570;2023-04-25T02:31:32;7.50;99.90
21312;DHT22;18076;52.154;10.570;2023-04-25T02:33:57;7.50;99.90
21312;DHT22;18076;52.154;10.570;2023-04-25T02:36:23;7.50;99.90
21312;DHT22;18076;52.154;10.570;2023-04-25T02:38:49;7.50;99.90
21312;DHT22;18076;52.154;10.570;2023-04-25T02:41:14;7.50;99.90
21312;DHT22;18076;52.154;10.570;2023-04-25T02:43:40;7.50;99.90
21312;DHT22;18076;52.154;10.570;2023-04-25T02:46:06;7.50;99.90
21312;DHT22;18076;52.154;10.570;2023-04-25T02:48:32;7.50;99.90
21312;DHT22;18076;52.154;10.570;2023-04-25T02:50:57;7.50;99.90
21312;DHT22;18076;52.154;10.570;2023-04-25T02:53:23;7.40;99.90
21312;DHT22;18076;52.154;10.570;2023-04-25T02:55:48;7.50;99.90
21312;DHT22;18076;52.154;10.570;2023-04-25T02:58:14;7.40;99.90
21312;DHT22;18076;52.154;10.570;2023-04-25T03:00:40;7.40;99.90
21312;DHT22;18076;52.154;10.570;2023-04-25T03:03:06;7.40;99.90
21312;DHT22;18076;52.154;10.570;2023-04-25T03:05:31;7.40;99.90
21312;DHT22;18076;52.154;10.570;2023-04-25T03:07:57;7.40;99.90
21312;DHT22;18076;52.154;10.570;2023-04-25T03:10:22;7.40;99.90
21312;DHT22;18076;52.154;10.570;2023-04-25T03:12:48;7.40;99.90
21312;DHT22;18076;52.154;10.570;2023-04-25T03:15:13;7.40;99.90
21312;DHT22;18076;52.154;10.570;2023-04-25T03:17:39;7.40;99.90
21312;DHT22;18076;52.154;10.570;2023-04-25T03:20:05;7.30;99.90
21312;DHT22;18076;52.154;10.570;2023-04-25T03:22:32;7.40;99.90
21312;DHT22;18076;52.154;10.570;2023-04-25T03:24:58;7.30;99.90
21312;DHT22;18076;52.154;10.570;2023-04-25T03:27:23;7.30;99.90
21312;DHT22;18076;52.154;10.570;2023-04-25T03:29:49;7.30;99.90
21312;DHT22;18076;52.154;10.570;2023-04-25T03:32:14;7.30;99.90
21312;DHT22;18076;52.154;10.570;2023-04-25T03:34:40;7.30;99.90
21312;DHT22;18076;52.154;10.570;2023-04-25T03:37:06;7.30;99.90
21312;DHT22;18076;52.154;10.570;2023-04-25T03:39:35;7.30;99.90
21312;DHT22;18076;52.154;10.570;2023-04-25T03:42:00;7.20;99.90
21312;DHT22;18076;52.154;10.570;2023-04-25T03:44:26;7.20;99.90
21312;DHT22;18076;52.154;10.570;2023-04-25T03:46:52;7.20;99.90
21312;DHT22;18076;52.154;10.570;2023-04-25T03:49:17;7.10;99.90
21312;DHT22;18076;52.154;10.570;2023-04-25T03:51:43;7.10;99.90
21312;DHT22;18076;52.154;10.570;2023-04-25T03:54:08;7.10;99.90
21312;DHT22;18076;52.154;10.570;2023-04-25T03:56:34;7.00;99.90
21312;DHT22;18076;52.154;10.570;2023-04-25T03:58:59;7.00;99.90
21312;DHT22;18076;52.154;10.570;2023-04-25T04:01:25;7.00;99.90
21312;DHT22;18076;52.154;10.570;2023-04-25T04:03:51;6.90;99.90
21312;DHT22;18076;52.154;10.570;2023-04-25T04:06:17;6.90;99.90
21312;DHT22;18076;52.154;10.570;2023-04-25T04:08:43;6.80;99.90
21312;DHT22;18076;52.154;10.570;2023-04-25T04:11:09;6.80;99.90
21312;DHT22;18076;52.154;10.570;2023-04-25T04:13:34;6.70;99.90
21312;DHT22;18076;52.154;10.570;2023-04-25T04:16:00;6.70;99.90
21312;DHT22;18076;52.154;10.570;2023-04-25T04:18:25;6.70;99.90
21312;DHT22;18076;52.154;10.570;2023-04-25T04:20:51;6.60;99.90
21312;DHT22;18076;52.154;10.570;2023-04-25T04:23:16;6.60;99.90
21312;DHT22;18076;52.154;10.570;2023-04-25T04:25:42;6.50;99.90
21312;DHT22;18076;52.154;10.570;2023-04-25T04:28:08;6.50;99.90
21312;DHT22;18076;52.154;10.570;2023-04-25T04:30:34;6.50;99.90
21312;DHT22;18076;52.154;10.570;2023-04-25T04:33:01;6.50;99.90
21312;DHT22;18076;52.154;10.570;2023-04-25T04:35:27;6.50;99.90
21312;DHT22;18076;52.154;10.570;2023-04-25T04:37:53;6.50;99.90
21312;DHT22;18076;52.154;10.570;2023-04-25T04:40:19;6.50;99.90
21312;DHT22;18076;52.154;10.570;2023-04-25T04:42:45;6.40;99.90
21312;DHT22;18076;52.154;10.570;2023-04-25T04:45:11;6.50;99.90
21312;DHT22;18076;52.154;10.570;2023-04-25T04:47:37;6.40;99.90
21312;DHT22;18076;52.154;10.570;2023-04-25T04:50:07;6.40;99.90
21312;DHT22;18076;52.154;10.570;2023-04-25T04:52:34;6.50;99.90
21312;DHT22;18076;52.154;10.570;2023-04-25T04:55:02;6.50;99.90
21312;DHT22;18076;52.154;10.570;2023-04-25T04:57:33;6.40;99.90
21312;DHT22;18076;52.154;10.570;2023-04-25T05:00:03;6.50;99.90
21312;DHT22;18076;52.154;10.570;2023-04-25T05:02:30;6.50;99.90
21312;DHT22;18076;52.154;10.570;2023-04-25T05:04:56;6.60;99.90
21312;DHT22;18076;52.154;10.570;2023-04-25T05:07:21;6.60;99.90
21312;DHT22;18076;52.154;10.570;2023-04-25T05:09:47;6.70;99.90
21312;DHT22;18076;52.154;10.570;2023-04-25T05:12:12;6.70;99.90
21312;DHT22;18076;52.154;10.570;2023-04-25T05:14:38;6.80;99.90
21312;DHT22;18076;52.154;10.570;2023-04-25T05:17:03;6.80;99.90
21312;DHT22;18076;52.154;10.570;2023-04-25T05:19:32;6.80;99.90
21312;DHT22;18076;52.154;10.570;2023-04-25T05:21:57;6.80;99.90
21312;DHT22;18076;52.154;10.570;2023-04-25T05:24:23;6.80;99.90
21312;DHT22;18076;52.154;10.570;2023-04-25T05:26:48;6.80;99.90
21312;DHT22;18076;52.154;10.570;2023-04-25T05:29:14;6.90;99.90
21312;DHT22;18076;52.154;10.570;2023-04-25T05:31:39;6.90;99.90
21312;DHT22;18076;52.154;10.570;2023-04-25T05:34:05;7.00;99.90
21312;DHT22;18076;52.154;10.570;2023-04-25T05:36:31;7.00;99.90
21312;DHT22;18076;52.154;10.570;2023-04-25T05:38:57;7.10;99.90
21312;DHT22;18076;52.154;10.570;2023-04-25T05:41:23;7.10;99.90
21312;DHT22;18076;52.154;10.570;2023-04-25T05:43:48;7.10;99.90
21312;DHT22;18076;52.154;10.570;2023-04-25T05:46:14;7.20;99.90
21312;DHT22;18076;52.154;10.570;2023-04-25T05:48:42;7.30;99.90
21312;DHT22;18076;52.154;10.570;2023-04-25T05:51:08;7.30;99.90
21312;DHT22;18076;52.154;10.570;2023-04-25T05:53:33;7.30;99.90
21312;DHT22;18076;52.154;10.570;2023-04-25T05:55:59;7.30;99.90
21312;DHT22;18076;52.154;10.570;2023-04-25T05:58:24;7.40;99.90
21312;DHT22;18076;52.154;10.570;2023-04-25T06:00:50;7.30;99.90
21312;DHT22;18076;52.154;10.570;2023-04-25T06:03:16;7.30;99.90
21312;DHT22;18076;52.154;10.570;2023-04-25T06:05:41;7.40;99.90
21312;DHT22;18076;52.154;10.570;2023-04-25T06:08:08;7.40;99.90
21312;DHT22;18076;52.154;10.570;2023-04-25T06:10:33;7.50;99.90
21312;DHT22;18076;52.154;10.570;2023-04-25T06:12:59;7.60;99.90
21312;DHT22;18076;52.154;10.570;2023-04-25T06:15:24;7.70;99.90
21312;DHT22;18076;52.154;10.570;2023-04-25T06:17:50;7.90;99.90
21312;DHT22;18076;52.154;10.570;2023-04-25T06:20:15;8.10;99.90
21312;DHT22;18076;52.154;10.570;2023-04-25T06:22:41;8.20;99.90
21312;DHT22;18076;52.154;10.570;2023-04-25T06:25:07;8.40;99.90
21312;DHT22;18076;52.154;10.570;2023-04-25T06:27:33;8.30;99.90
21312;DHT22;18076;52.154;10.570;2023-04-25T06:29:58;8.40;99.90
21312;DHT22;18076;52.154;10.570;2023-04-25T06:32:24;8.40;99.90
21312;DHT22;18076;52.154;10.570;2023-04-25T06:34:51;8.50;99.90
21312;DHT22;18076;52.154;10.570;2023-04-25T06:37:17;8.40;99.90
21312;DHT22;18076;52.154;10.570;2023-04-25T06:39:42;8.40;99.90
21312;DHT22;18076;52.154;10.570;2023-04-25T06:42:08;8.40;99.90
21312;DHT22;18076;52.154;10.570;2023-04-25T06:44:33;8.30;99.90
21312;DHT22;18076;52.154;10.570;2023-04-25T06:46:59;8.30;99.90
21312;DHT22;18076;52.154;10.570;2023-04-25T06:49:24;8.30;99.90
21312;DHT22;18076;52.154;10.570;2023-04-25T06:51:50;8.30;99.90
21312;DHT22;18076;52.154;10.570;2023-04-25T06:54:15;8.30;99.90
21312;DHT22;18076;52.154;10.570;2023-04-25T06:56:41;8.30;99.90
21312;DHT22;18076;52.154;10.570;2023-04-25T06:59:07;8.50;99.90
21312;DHT22;18076;52.154;10.570;2023-04-25T07:01:32;8.60;99.90
21312;DHT22;18076;52.154;10.570;2023-04-25T07:03:58;8.50;99.90
21312;DHT22;18076;52.154;10.570;2023-04-25T07:06:23;8.50;99.90
21312;DHT22;18076;52.154;10.570;2023-04-25T07:08:51;8.80;99.90
21312;DHT22;18076;52.154;10.570;2023-04-25T07:11:16;9.10;99.90
21312;DHT22;18076;52.154;10.570;2023-04-25T07:13:42;9.20;99.90
21312;DHT22;18076;52.154;10.570;2023-04-25T07:16:07;9.00;99.90
21312;DHT22;18076;52.154;10.570;2023-04-25T07:18:33;8.80;99.90
21312;DHT22;18076;52.154;10.570;2023-04-25T07:20:58;8.60;99.90
21312;DHT22;18076;52.154;10.570;2023-04-25T07:23:24;8.60;99.90
21312;DHT22;18076;52.154;10.570;2023-04-25T07:25:49;8.50;99.90
21312;DHT22;18076;52.154;10.570;2023-04-25T07:28:15;8.40;99.90
21312;DHT22;18076;52.154;10.570;2023-04-25T07:30:40;8.30;99.90
21312;DHT22;18076;52.154;10.570;2023-04-25T07:33:06;8.20;99.90
21312;DHT22;18076;52.154;10.570;2023-04-25T07:35:31;8.20;99.90
21312;DHT22;18076;52.154;10.570;2023-04-25T07:37:57;8.20;99.90
21312;DHT22;18076;52.154;10.570;2023-04-25T07:40:24;8.50;99.90
21312;DHT22;18076;52.154;10.570;2023-04-25T07:42:49;8.80;99.90
21312;DHT22;18076;52.154;10.570;2023-04-25T07:45:15;8.80;99.90
21312;DHT22;18076;52.154;10.570;2023-04-25T07:47:41;8.60;99.90
21312;DHT22;18076;52.154;10.570;2023-04-25T07:50:07;8.60;99.90
21312;DHT22;18076;52.154;10.570;2023-04-25T07:52:32;8.60;99.90
21312;DHT22;18076;52.154;10.570;2023-04-25T07:54:58;8.60;99.90
21312;DHT22;18076;52.154;10.570;2023-04-25T07:57:24;8.60;99.90
21312;DHT22;18076;52.154;10.570;2023-04-25T07:59:50;8.60;99.90
21312;DHT22;18076;52.154;10.570;2023-04-25T08:02:15;9.10;99.90
21312;DHT22;18076;52.154;10.570;2023-04-25T08:04:41;9.50;99.90
21312;DHT22;18076;52.154;10.570;2023-04-25T08:07:06;9.80;99.90
21312;DHT22;18076;52.154;10.570;2023-04-25T08:09:32;9.80;99.90
21312;DHT22;18076;52.154;10.570;2023-04-25T08:12:00;9.90;99.90
21312;DHT22;18076;52.154;10.570;2023-04-25T08:14:27;10.10;99.90
21312;DHT22;18076;52.154;10.570;2023-04-25T08:16:54;10.10;99.90
21312;DHT22;18076;52.154;10.570;2023-04-25T08:19:19;10.10;99.90
21312;DHT22;18076;52.154;10.570;2023-04-25T08:21:45;9.90;99.90
21312;DHT22;18076;52.154;10.570;2023-04-25T08:24:10;9.60;99.90
21312;DHT22;18076;52.154;10.570;2023-04-25T08:26:36;9.50;99.90
21312;DHT22;18076;52.154;10.570;2023-04-25T08:29:02;9.60;99.90
21312;DHT22;18076;52.154;10.570;2023-04-25T08:31:28;10.00;99.90
21312;DHT22;18076;52.154;10.570;2023-04-25T08:33:53;10.10;99.90
21312;DHT22;18076;52.154;10.570;2023-04-25T08:36:19;10.10;99.90
21312;DHT22;18076;52.154;10.570;2023-04-25T08:38:44;10.00;99.90
21312;DHT22;18076;52.154;10.570;2023-04-25T08:41:10;9.80;99.90
21312;DHT22;18076;52.154;10.570;2023-04-25T08:43:36;9.80;99.90
21312;DHT22;18076;52.154;10.570;2023-04-25T08:46:02;9.70;99.90
21312;DHT22;18076;52.154;10.570;2023-04-25T08:48:28;9.50;99.90
21312;DHT22;18076;52.154;10.570;2023-04-25T08:50:57;9.30;99.90
21312;DHT22;18076;52.154;10.570;2023-04-25T08:53:27;9.00;99.90
21312;DHT22;18076;52.154;10.570;2023-04-25T08:55:53;8.80;99.90
21312;DHT22;18076;52.154;10.570;2023-04-25T08:58:19;8.60;99.90
21312;DHT22;18076;52.154;10.570;2023-04-25T09:00:45;8.60;99.90
21312;DHT22;18076;52.154;10.570;2023-04-25T09:03:11;8.50;99.90
21312;DHT22;18076;52.154;10.570;2023-04-25T09:05:36;8.50;99.90
21312;DHT22;18076;52.154;10.570;2023-04-25T09:08:02;8.50;99.90
21312;DHT22;18076;52.154;10.570;2023-04-25T09:10:28;8.70;99.90
21312;DHT22;18076;52.154;10.570;2023-04-25T09:15:29;8.90;99.90
21312;DHT22;18076;52.154;10.570;2023-04-25T09:17:55;9.30;99.90
21312;DHT22;18076;52.154;10.570;2023-04-25T09:20:21;9.50;99.90
21312;DHT22;18076;52.154;10.570;2023-04-25T09:22:47;9.50;99.90
21312;DHT22;18076;52.154;10.570;2023-04-25T09:25:12;9.50;99.90
21312;DHT22;18076;52.154;10.570;2023-04-25T09:27:52;9.50;99.90
21312;DHT22;18076;52.154;10.570;2023-04-25T09:30:26;10.00;99.90
21312;DHT22;18076;52.154;10.570;2023-04-25T09:33:05;10.70;99.90
21312;DHT22;18076;52.154;10.570;2023-04-25T09:35:38;11.50;99.90
21312;DHT22;18076;52.154;10.570;2023-04-25T09:38:14;12.30;99.90
21312;DHT22;18076;52.154;10.570;2023-04-25T09:40:40;12.60;99.90
21312;DHT22;18076;52.154;10.570;2023-04-25T09:43:22;12.50;99.90
21312;DHT22;18076;52.154;10.570;2023-04-25T09:45:48;12.00;99.90
21312;DHT22;18076;52.154;10.570;2023-04-25T09:48:21;11.40;99.90
21312;DHT22;18076;52.154;10.570;2023-04-25T09:51:29;11.10;99.90
21312;DHT22;18076;52.154;10.570;2023-04-25T09:53:37;10.70;99.90
21312;DHT22;18076;52.154;10.570;2023-04-25T09:56:03;10.50;99.90
21312;DHT22;18076;52.154;10.570;2023-04-25T09:58:29;10.20;99.90
21312;DHT22;18076;52.154;10.570;2023-04-25T10:00:56;10.10;99.90
21312;DHT22;18076;52.154;10.570;2023-04-25T10:03:24;9.90;99.90
21312;DHT22;18076;52.154;10.570;2023-04-25T10:05:51;9.60;99.90
21312;DHT22;18076;52.154;10.570;2023-04-25T10:08:17;9.50;99.90
21312;DHT22;18076;52.154;10.570;2023-04-25T10:10:43;9.20;99.90
21312;DHT22;18076;52.154;10.570;2023-04-25T10:13:10;9.10;99.90
21312;DHT22;18076;52.154;10.570;2023-04-25T10:15:36;8.90;99.90
21312;DHT22;18076;52.154;10.570;2023-04-25T10:18:02;8.80;99.90
21312;DHT22;18076;52.154;10.570;2023-04-25T10:20:29;8.90;99.90
21312;DHT22;18076;52.154;10.570;2023-04-25T10:22:55;9.00;99.90
21312;DHT22;18076;52.154;10.570;2023-04-25T10:25:23;9.10;99.90
21312;DHT22;18076;52.154;10.570;2023-04-25T10:27:52;9.20;99.90
21312;DHT22;18076;52.154;10.570;2023-04-25T10:30:17;9.60;99.90
21312;DHT22;18076;52.154;10.570;2023-04-25T10:32:43;9.70;99.90
21312;DHT22;18076;52.154;10.570;2023-04-25T10:37:36;11.00;99.90
21312;DHT22;18076;52.154;10.570;2023-04-25T10:40:07;11.60;99.90
21312;DHT22;18076;52.154;10.570;2023-04-25T10:42:33;12.10;99.90
21312;DHT22;18076;52.154;10.570;2023-04-25T10:45:04;12.60;99.90
21312;DHT22;18076;52.154;10.570;2023-04-25T10:47:36;12.90;99.90
21312;DHT22;18076;52.154;10.570;2023-04-25T10:50:05;12.90;99.90
21312;DHT22;18076;52.154;10.570;2023-04-25T10:52:32;13.10;99.90
21312;DHT22;18076;52.154;10.570;2023-04-25T10:54:58;13.40;99.90
21312;DHT22;18076;52.154;10.570;2023-04-25T10:57:30;13.50;99.90
21312;DHT22;18076;52.154;10.570;2023-04-25T11:00:00;13.10;99.90
21312;DHT22;18076;52.154;10.570;2023-04-25T11:02:26;12.30;99.90
21312;DHT22;18076;52.154;10.570;2023-04-25T11:04:53;11.90;99.90
21312;DHT22;18076;52.154;10.570;2023-04-25T11:10:03;11.40;99.90
21312;DHT22;18076;52.154;10.570;2023-04-25T11:12:30;11.30;99.90
21312;DHT22;18076;52.154;10.570;2023-04-25T11:15:02;11.20;99.90
21312;DHT22;18076;52.154;10.570;2023-04-25T11:17:28;11.30;99.90
21312;DHT22;18076;52.154;10.570;2023-04-25T11:19:54;11.30;99.90
21312;DHT22;18076;52.154;10.570;2023-04-25T11:22:21;11.20;99.90
21312;DHT22;18076;52.154;10.570;2023-04-25T11:24:47;11.00;99.90
21312;DHT22;18076;52.154;10.570;2023-04-25T11:27:12;10.90;99.90
21312;DHT22;18076;52.154;10.570;2023-04-25T11:29:38;10.90;99.90
21312;DHT22;18076;52.154;10.570;2023-04-25T11:32:04;10.90;99.90
21312;DHT22;18076;52.154;10.570;2023-04-25T11:34:30;10.90;99.90
21312;DHT22;18076;52.154;10.570;2023-04-25T11:36:56;10.90;99.90
21312;DHT22;18076;52.154;10.570;2023-04-25T11:39:23;10.80;99.90
21312;DHT22;18076;52.154;10.570;2023-04-25T11:41:49;10.50;99.90
21312;DHT22;18076;52.154;10.570;2023-04-25T11:44:16;10.40;99.90
21312;DHT22;18076;52.154;10.570;2023-04-25T11:46:42;10.20;99.90
21312;DHT22;18076;52.154;10.570;2023-04-25T11:49:07;10.20;99.90
21312;DHT22;18076;52.154;10.570;2023-04-25T11:51:42;10.00;99.90
21312;DHT22;18076;52.154;10.570;2023-04-25T11:54:08;9.90;99.90
21312;DHT22;18076;52.154;10.570;2023-04-25T11:56:34;9.90;99.90
21312;DHT22;18076;52.154;10.570;2023-04-25T11:59:00;10.00;99.90
21312;DHT22;18076;52.154;10.570;2023-04-25T12:01:30;10.00;99.90
21312;DHT22;18076;52.154;10.570;2023-04-25T12:03:56;10.00;99.90
21312;DHT22;18076;52.154;10.570;2023-04-25T12:06:25;10.10;99.90
21312;DHT22;18076;52.154;10.570;2023-04-25T12:09:02;10.20;99.90
21312;DHT22;18076;52.154;10.570;2023-04-25T12:11:32;10.40;99.90
21312;DHT22;18076;52.154;10.570;2023-04-25T12:14:04;10.40;99.90
21312;DHT22;18076;52.154;10.570;2023-04-25T12:16:39;10.50;99.90
21312;DHT22;18076;52.154;10.570;2023-04-25T12:19:05;10.50;99.90
21312;DHT22;18076;52.154;10.570;2023-04-25T12:21:31;10.90;99.90
21312;DHT22;18076;52.154;10.570;2023-04-25T12:24:08;11.10;99.90
21312;DHT22;18076;52.154;10.570;2023-04-25T12:26:47;11.40;99.90
21312;DHT22;18076;52.154;10.570;2023-04-25T12:29:16;11.20;99.90
21312;DHT22;18076;52.154;10.570;2023-04-25T12:31:42;11.10;99.90
21312;DHT22;18076;52.154;10.570;2023-04-25T12:34:08;11.10;99.90
21312;DHT22;18076;52.154;10.570;2023-04-25T12:36:33;11.40;99.90
21312;DHT22;18076;52.154;10.570;2023-04-25T12:38:59;11.80;99.90
21312;DHT22;18076;52.154;10.570;2023-04-25T12:41:29;12.30;99.90
21312;DHT22;18076;52.154;10.570;2023-04-25T12:43:55;12.60;99.90
21312;DHT22;18076;52.154;10.570;2023-04-25T12:46:20;12.30;99.90
21312;DHT22;18076;52.154;10.570;2023-04-25T12:48:46;12.00;99.90
21312;DHT22;18076;52.154;10.570;2023-04-25T12:51:12;11.70;99.90
21312;DHT22;18076;52.154;10.570;2023-04-25T12:53:37;11.20;99.90
21312;DHT22;18076;52.154;10.570;2023-04-25T12:56:04;10.70;99.90
21312;DHT22;18076;52.154;10.570;2023-04-25T12:58:30;10.40;99.90
21312;DHT22;18076;52.154;10.570;2023-04-25T13:00:55;10.40;99.90
21312;DHT22;18076;52.154;10.570;2023-04-25T13:03:21;10.20;99.90
21312;DHT22;18076;52.154;10.570;2023-04-25T13:05:49;10.00;99.90
21312;DHT22;18076;52.154;10.570;2023-04-25T13:08:16;9.70;99.90
21312;DHT22;18076;52.154;10.570;2023-04-25T13:10:41;9.50;99.90
21312;DHT22;18076;52.154;10.570;2023-04-25T13:13:07;9.40;99.90
21312;DHT22;18076;52.154;10.570;2023-04-25T13:15:33;9.30;99.90
21312;DHT22;18076;52.154;10.570;2023-04-25T13:17:59;9.30;99.90
21312;DHT22;18076;52.154;10.570;2023-04-25T13:20:24;9.40;99.90
21312;DHT22;18076;52.154;10.570;2023-04-25T13:22:50;9.40;99.90
21312;DHT22;18076;52.154;10.570;2023-04-25T13:25:15;9.60;99.90
21312;DHT22;18076;52.154;10.570;2023-04-25T13:27:41;9.90;99.90
21312;DHT22;18076;52.154;10.570;2023-04-25T13:30:09;10.40;99.90
21312;DHT22;18076;52.154;10.570;2023-04-25T13:32:35;10.90;99.90
21312;DHT22;18076;52.154;10.570;2023-04-25T13:35:12;11.30;99.90
21312;DHT22;18076;52.154;10.570;2023-04-25T13:37:39;11.50;99.90
21312;DHT22;18076;52.154;10.570;2023-04-25T13:40:05;11.80;99.90
21312;DHT22;18076;52.154;10.570;2023-04-25T13:42:31;12.20;99.90
21312;DHT22;18076;52.154;10.570;2023-04-25T13:44:57;12.60;99.90
21312;DHT22;18076;52.154;10.570;2023-04-25T13:47:22;12.50;99.90
21312;DHT22;18076;52.154;10.570;2023-04-25T13:49:48;12.40;99.90
21312;DHT22;18076;52.154;10.570;2023-04-25T13:52:14;12.10;99.90
21312;DHT22;18076;52.154;10.570;2023-04-25T13:54:40;11.80;99.90
21312;DHT22;18076;52.154;10.570;2023-04-25T13:57:05;11.50;99.90
21312;DHT22;18076;52.154;10.570;2023-04-25T13:59:32;11.20;99.90
21312;DHT22;18076;52.154;10.570;2023-04-25T14:01:58;10.80;99.90
21312;DHT22;18076;52.154;10.570;2023-04-25T14:04:23;10.60;99.90
21312;DHT22;18076;52.154;10.570;2023-04-25T14:06:49;10.40;99.90
21312;DHT22;18076;52.154;10.570;2023-04-25T14:09:14;10.50;99.90
21312;DHT22;18076;52.154;10.570;2023-04-25T14:11:41;10.60;99.90
21312;DHT22;18076;52.154;10.570;2023-04-25T14:14:06;10.60;99.90
21312;DHT22;18076;52.154;10.570;2023-04-25T14:16:32;10.50;99.90
21312;DHT22;18076;52.154;10.570;2023-04-25T14:18:58;10.30;99.90
21312;DHT22;18076;52.154;10.570;2023-04-25T14:21:23;10.00;99.20
21312;DHT22;18076;52.154;10.570;2023-04-25T14:23:49;10.00;99.90
21312;DHT22;18076;52.154;10.570;2023-04-25T14:26:14;9.90;99.90
21312;DHT22;18076;52.154;10.570;2023-04-25T14:28:40;9.80;99.90
21312;DHT22;18076;52.154;10.570;2023-04-25T14:31:06;9.70;99.90
21312;DHT22;18076;52.154;10.570;2023-04-25T14:33:32;9.80;99.90
21312;DHT22;18076;52.154;10.570;2023-04-25T14:35:57;9.70;99.90
21312;DHT22;18076;52.154;10.570;2023-04-25T14:38:23;9.90;99.90
21312;DHT22;18076;52.154;10.570;2023-04-25T14:40:51;9.90;99.90
21312;DHT22;18076;52.154;10.570;2023-04-25T14:43:16;9.90;99.90
21312;DHT22;18076;52.154;10.570;2023-04-25T14:45:42;9.90;99.90
21312;DHT22;18076;52.154;10.570;2023-04-25T14:48:07;9.90;99.90
21312;DHT22;18076;52.154;10.570;2023-04-25T14:50:33;9.90;99.90
21312;DHT22;18076;52.154;10.570;2023-04-25T14:52:59;9.90;99.90
21312;DHT22;18076;52.154;10.570;2023-04-25T14:55:26;10.20;99.90
21312;DHT22;18076;52.154;10.570;2023-04-25T14:57:52;10.60;99.90
21312;DHT22;18076;52.154;10.570;2023-04-25T15:00:18;10.90;99.90
21312;DHT22;18076;52.154;10.570;2023-04-25T15:02:45;11.00;99.90
21312;DHT22;18076;52.154;10.570;2023-04-25T15:05:12;10.90;99.90
21312;DHT22;18076;52.154;10.570;2023-04-25T15:07:38;11.10;99.90
21312;DHT22;18076;52.154;10.570;2023-04-25T15:10:06;11.00;99.90
21312;DHT22;18076;52.154;10.570;2023-04-25T15:12:31;10.60;99.90
21312;DHT22;18076;52.154;10.570;2023-04-25T15:14:57;10.20;99.90
21312;DHT22;18076;52.154;10.570;2023-04-25T15:17:22;10.00;99.90
21312;DHT22;18076;52.154;10.570;2023-04-25T15:19:48;9.80;99.90
21312;DHT22;18076;52.154;10.570;2023-04-25T15:22:13;9.70;99.90
21312;DHT22;18076;52.154;10.570;2023-04-25T15:24:39;9.60;99.90
21312;DHT22;18076;52.154;10.570;2023-04-25T15:27:04;9.40;99.90
21312;DHT22;18076;52.154;10.570;2023-04-25T15:29:30;9.20;99.90